MDST

Details ICAO MDST (STI)
Name Santiago Cibao Intl
Region Dominican Republic
Timezone America/Santo_Domingo (UTC-4.0)
Plans Departing 202
Arriving 190
Stats Elevation 562 ft / 171 m (AMSL)
Location 19.406100° -70.604700°
Runways 1
Magnetic Variation 11.232° W
Sunrise 2018-10-19 10:39:12 UTC / 2018-10-19 06:39:12 Local
Sunset 2018-10-19 22:17:50 UTC / 2018-10-19 18:17:50 Local
Advertisement - Login to hide

Runways

ID Width Length Bearing (true/mag) Surface Threshold Overrun Markings Lighting
11 148 ft / 45 m 8,604 ft / 2,623 m 103.01° / 114.24° ASPHALT 0 ft / 0 m 200 ft / 61 m PREC-APP EDGE THRESHOLD MALSR
29 148 ft / 45 m 8,604 ft / 2,623 m 283.02° / 294.25° ASPHALT 0 ft / 0 m 200 ft / 61 m PREC-APP EDGE THRESHOLD

Approach Navaids

Runway Type Ident Frequency Range Bearing (true/mag) Slope Elevation
11 DME EXP 109.30 MHz 18 nm / 33 km - - 563 ft / 172 m (AMSL)
11 LOC-ILS EXP 109.30 MHz 18 nm / 33 km 103.11° / 114.34° - 565 ft / 172 m (AMSL)
11 GS EXP 109.30 MHz 10 nm / 19 km 103.16° / 114.39° 2.80° 565 ft / 172 m (AMSL)

Map

Weather


0- 5 10 15 20 25 30 35+ Temperature / °C

Clouds and Precipitation
Forecast for 2018-10-19 12:00 UTC. Updated 6 hours ago

Ground ~20,000 ft ~40,000 ft Winds

METAR

MDST 191500Z 08004KT 9999 BKN019 BKN080 26/25 Q1017

TAF

Not found

Frequencies

Ground 121.90 MHz SANTIAGO GND
Tower 118.30 MHz SANTIAGO TWR
Warning: Do not use this data for real-world aviation or navigation. No guarantee of current accuracy is given.